Time,TemperatureF,DewpointF,PressureIn,WindDirection,WindDirectionDegrees,WindSpeedMPH,WindSpeedGustMPH,Humidity,HourlyPrecipIn,Conditions,Clouds,dailyrainin,SoftwareType,DateUTC
2013-06-29 00:06:00,79.0,72.0,29.50,North,354,2.0,6.0,78,0.00,,,0.00,weatherlink.com 1.10,2013-06-29 04:06:00,
2013-06-29 00:21:00,78.1,71.0,29.50,SW,214,1.0,4.0,78,0.09,,,0.09,weatherlink.com 1.10,2013-06-29 04:21:00,
2013-06-29 00:36:00,76.1,71.0,29.48,SE,132,2.0,3.0,83,0.11,,,0.11,weatherlink.com 1.10,2013-06-29 04:36:00,
2013-06-29 00:52:00,75.2,71.0,29.49,SSW,198,2.0,4.0,87,0.11,,,0.11,weatherlink.com 1.10,2013-06-29 04:52:00,
2013-06-29 01:07:00,76.6,74.0,29.48,South,187,2.0,8.0,90,0.11,,,0.11,weatherlink.com 1.10,2013-06-29 05:07:00,
2013-06-29 01:22:00,77.2,74.0,29.48,SW,228,2.0,6.0,89,0.02,,,0.00,weatherlink.com 1.10,2013-06-29 05:22:00,
2013-06-29 01:37:00,78.5,75.0,29.48,West,262,6.0,11.0,90,0.00,,,0.00,weatherlink.com 1.10,2013-06-29 05:37:00,
2013-06-29 01:52:00,78.8,76.0,29.48,SW,224,10.0,15.0,90,0.00,,,0.00,weatherlink.com 1.10,2013-06-29 05:52:00,
2013-06-29 02:08:00,78.6,76.0,29.48,WSW,257,11.0,13.0,90,0.00,,,0.00,weatherlink.com 1.10,2013-06-29 06:08:00,
2013-06-29 02:23:00,78.7,75.0,29.47,WSW,250,10.0,19.0,89,0.00,,,0.00,weatherlink.com 1.10,2013-06-29 06:23:00,
2013-06-29 02:38:00,78.6,75.0,29.46,WSW,239,14.0,17.0,89,0.00,,,0.00,weatherlink.com 1.10,2013-06-29 06:38:00,
2013-06-29 03:09:00,78.6,75.0,29.45,South,191,6.0,20.0,88,0.00,,,0.00,weatherlink.com 1.10,2013-06-29 07:09:00,
2013-06-29 03:24:00,78.7,75.0,29.45,SSW,211,5.0,19.0,88,0.00,,,0.00,weatherlink.com 1.10,2013-06-29 07:24:00,
2013-06-29 03:39:00,78.7,75.0,29.45,West,269,12.0,26.0,88,0.00,,,0.00,weatherlink.com 1.10,2013-06-29 07:39:00,
2013-06-29 03:54:00,78.7,75.0,29.46,SW,233,4.0,21.0,88,0.00,,,0.00,weatherlink.com 1.10,2013-06-29 07:54:00,
2013-06-29 04:09:00,78.9,75.0,29.46,WSW,243,17.0,19.0,88,0.00,,,0.00,weatherlink.com 1.10,2013-06-29 08:09:00,
2013-06-29 04:26:00,78.9,75.0,29.47,WSW,249,10.0,26.0,87,0.00,,,0.00,weatherlink.com 1.10,2013-06-29 08:26:00,
2013-06-29 04:41:00,79.0,75.0,29.47,WSW,238,14.0,21.0,87,0.00,,,0.00,weatherlink.com 1.10,2013-06-29 08:41:00,
2013-06-29 04:56:00,79.2,75.0,29.47,WSW,250,17.0,21.0,87,0.00,,,0.00,weatherlink.com 1.10,2013-06-29 08:56:00,
2013-06-29 05:11:00,79.2,75.0,29.47,WSW,245,11.0,25.0,86,0.00,,,0.00,weatherlink.com 1.10,2013-06-29 09:11:00,
2013-06-29 05:26:00,79.2,75.0,29.48,SSW,212,10.0,25.0,86,0.00,,,0.00,weatherlink.com 1.10,2013-06-29 09:26:00,
2013-06-29 05:41:00,79.2,75.0,29.48,WSW,250,14.0,21.0,86,0.00,,,0.00,weatherlink.com 1.10,2013-06-29 09:41:00,
2013-06-29 05:56:00,79.1,75.0,29.48,West,267,7.0,32.0,86,0.00,,,0.00,weatherlink.com 1.10,2013-06-29 09:56:00,
2013-06-29 06:11:00,79.0,75.0,29.48,SSW,198,7.0,20.0,86,0.00,,,0.00,weatherlink.com 1.10,2013-06-29 10:11:00,
2013-06-29 06:27:00,78.8,74.0,29.48,SSW,204,5.0,18.0,86,0.00,,,0.00,weatherlink.com 1.10,2013-06-29 10:27:00,
2013-06-29 06:42:00,78.7,74.0,29.49,WSW,257,13.0,19.0,86,0.00,,,0.00,weatherlink.com 1.10,2013-06-29 10:42:00,
2013-06-29 06:57:00,78.7,74.0,29.49,WSW,240,8.0,15.0,86,0.00,,,0.00,weatherlink.com 1.10,2013-06-29 10:57:00,
2013-06-29 07:12:00,78.7,74.0,29.49,West,268,11.0,17.0,86,0.00,,,0.00,weatherlink.com 1.10,2013-06-29 11:12:00,
2013-06-29 07:28:00,78.7,74.0,29.49,WNW,291,8.0,17.0,86,0.00,,,0.00,weatherlink.com 1.10,2013-06-29 11:28:00,
2013-06-29 07:43:00,79.0,75.0,29.49,WSW,253,5.0,18.0,86,0.00,,,0.00,weatherlink.com 1.10,2013-06-29 11:43:00,
2013-06-29 07:58:00,79.7,75.0,29.49,SSW,198,7.0,15.0,85,0.00,,,0.00,weatherlink.com 1.10,2013-06-29 11:58:00,
2013-06-29 08:13:00,80.0,75.0,29.49,West,259,5.0,19.0,84,0.00,,,0.00,weatherlink.com 1.10,2013-06-29 12:13:00,
2013-06-29 08:29:00,80.9,75.0,29.50,SW,229,14.0,14.0,83,0.00,,,0.00,weatherlink.com 1.10,2013-06-29 12:29:00,
2013-06-29 08:44:00,81.3,75.0,29.50,SW,235,12.0,18.0,82,0.00,,,0.00,weatherlink.com 1.10,2013-06-29 12:44:00,
2013-06-29 08:59:00,81.4,75.0,29.50,SW,233,13.0,20.0,82,0.00,,,0.00,weatherlink.com 1.10,2013-06-29 12:59:00,
2013-06-29 09:14:00,81.2,75.0,29.51,WSW,251,12.0,19.0,82,0.00,,,0.00,weatherlink.com 1.10,2013-06-29 13:14:00,
2013-06-29 09:29:00,80.7,75.0,29.51,WSW,251,15.0,18.0,83,0.00,,,0.00,weatherlink.com 1.10,2013-06-29 13:29:00,
2013-06-29 09:46:00,80.3,75.0,29.51,SW,225,5.0,15.0,84,0.00,,,0.00,weatherlink.com 1.10,2013-06-29 13:46:00,
2013-06-29 10:02:00,80.1,75.0,29.51,WSW,239,5.0,18.0,84,0.00,,,0.00,weatherlink.com 1.10,2013-06-29 14:02:00,
2013-06-29 10:16:00,80.5,75.0,29.51,SW,225,8.0,12.0,84,0.00,,,0.00,weatherlink.com 1.10,2013-06-29 14:16:00,
2013-06-29 10:31:00,80.5,75.0,29.51,SW,219,8.0,14.0,83,0.00,,,0.00,weatherlink.com 1.10,2013-06-29 14:31:00,
2013-06-29 10:46:00,81.4,76.0,29.50,SSW,205,7.0,15.0,83,0.00,,,0.00,weatherlink.com 1.10,2013-06-29 14:46:00,
2013-06-29 11:02:00,-999.0,-99.9,29.50,North,-999,-999.0,-999.0,-999,0.00,,,0.00,weatherlink.com 1.10,2013-06-29 15:02:00,
2013-06-29 11:17:00,-999.0,-99.9,29.50,North,-999,-999.0,-999.0,-999,0.00,,,0.00,weatherlink.com 1.10,2013-06-29 15:17:00,
2013-06-29 11:32:00,-999.0,-99.9,29.51,North,-999,-999.0,-999.0,-999,0.00,,,0.00,weatherlink.com 1.10,2013-06-29 15:32:00,
2013-06-29 11:47:00,-999.0,-99.9,29.51,North,-999,-999.0,-999.0,-999,0.00,,,0.00,weatherlink.com 1.10,2013-06-29 15:47:00,
2013-06-29 12:02:00,-999.0,-99.9,29.51,North,-999,-999.0,-999.0,-999,0.00,,,0.00,weatherlink.com 1.10,2013-06-29 16:02:00,
2013-06-29 12:17:00,-999.0,-99.9,29.52,North,-999,-999.0,-999.0,-999,0.00,,,0.00,weatherlink.com 1.10,2013-06-29 16:17:00,
2013-06-29 12:33:00,-999.0,-99.9,29.52,North,-999,-999.0,-999.0,-999,0.00,,,0.00,weatherlink.com 1.10,2013-06-29 16:33:00,
2013-06-29 12:48:00,-999.0,-99.9,29.52,North,-999,-999.0,-999.0,-999,0.00,,,0.00,weatherlink.com 1.10,2013-06-29 16:48:00,
2013-06-29 13:04:00,-999.0,-99.9,29.53,North,-999,-999.0,-999.0,-999,0.00,,,0.00,weatherlink.com 1.10,2013-06-29 17:04:00,
2013-06-29 13:19:00,-999.0,-99.9,29.52,North,-999,-999.0,-999.0,-999,0.00,,,0.00,weatherlink.com 1.10,2013-06-29 17:19:00,
2013-06-29 13:34:00,-999.0,-99.9,29.53,North,-999,-999.0,-999.0,-999,0.00,,,0.00,weatherlink.com 1.10,2013-06-29 17:34:00,
2013-06-29 13:49:00,-999.0,-99.9,29.53,North,-999,-999.0,-999.0,-999,0.00,,,0.00,weatherlink.com 1.10,2013-06-29 17:49:00,
2013-06-29 14:05:00,-999.0,-99.9,29.53,North,-999,-999.0,-999.0,-999,0.00,,,0.00,weatherlink.com 1.10,2013-06-29 18:05:00,
2013-06-29 14:19:00,-999.0,-99.9,29.53,North,-999,-999.0,-999.0,-999,0.00,,,0.00,weatherlink.com 1.10,2013-06-29 18:19:00,
2013-06-29 14:37:00,-999.0,-99.9,29.53,North,-999,-999.0,-999.0,-999,0.00,,,0.00,weatherlink.com 1.10,2013-06-29 18:37:00,
2013-06-29 14:51:00,-999.0,-99.9,29.52,North,-999,-999.0,-999.0,-999,0.00,,,0.00,weatherlink.com 1.10,2013-06-29 18:51:00,
2013-06-29 15:06:00,-999.0,-99.9,29.52,North,-999,-999.0,-999.0,-999,0.00,,,0.00,weatherlink.com 1.10,2013-06-29 19:06:00,
2013-06-29 15:22:00,-999.0,-99.9,29.53,North,-999,-999.0,-999.0,-999,0.00,,,0.00,weatherlink.com 1.10,2013-06-29 19:22:00,
2013-06-29 15:36:00,-999.0,-99.9,29.53,North,-999,-999.0,-999.0,-999,0.00,,,0.00,weatherlink.com 1.10,2013-06-29 19:36:00,
2013-06-29 15:52:00,-999.0,-99.9,29.53,North,-999,-999.0,-999.0,-999,0.00,,,0.00,weatherlink.com 1.10,2013-06-29 19:52:00,
2013-06-29 16:06:00,-999.0,-99.9,29.53,North,-999,-999.0,-999.0,-999,0.00,,,0.00,weatherlink.com 1.10,2013-06-29 20:06:00,
2013-06-29 16:22:00,81.8,75.0,29.53,WSW,251,18.0,31.0,80,0.00,,,0.00,weatherlink.com 1.10,2013-06-29 20:22:00,
2013-06-29 16:37:00,81.3,75.0,29.53,South,190,12.0,21.0,81,0.00,,,0.00,weatherlink.com 1.10,2013-06-29 20:37:00,
2013-06-29 16:52:00,80.9,75.0,29.53,West,262,15.0,25.0,82,0.00,,,0.00,weatherlink.com 1.10,2013-06-29 20:52:00,
2013-06-29 17:07:00,80.4,74.0,29.53,WSW,242,17.0,26.0,81,0.00,,,0.00,weatherlink.com 1.10,2013-06-29 21:07:00,
2013-06-29 17:22:00,80.7,74.0,29.53,West,259,17.0,23.0,80,0.00,,,0.00,weatherlink.com 1.10,2013-06-29 21:22:00,
2013-06-29 17:37:00,80.4,74.0,29.54,SSW,208,7.0,24.0,80,0.00,,,0.00,weatherlink.com 1.10,2013-06-29 21:37:00,
2013-06-29 17:53:00,80.5,74.0,29.53,SSW,201,11.0,26.0,81,0.00,,,0.00,weatherlink.com 1.10,2013-06-29 21:53:00,
2013-06-29 18:08:00,80.0,74.0,29.53,SSW,210,7.0,17.0,82,0.00,,,0.00,weatherlink.com 1.10,2013-06-29 22:08:00,
2013-06-29 18:23:00,79.7,74.0,29.52,SW,236,7.0,17.0,83,0.00,,,0.00,weatherlink.com 1.10,2013-06-29 22:23:00,
2013-06-29 18:38:00,79.4,74.0,29.53,NW,317,10.0,19.0,83,0.00,,,0.00,weatherlink.com 1.10,2013-06-29 22:38:00,
2013-06-29 18:54:00,79.4,74.0,29.53,WSW,249,18.0,20.0,84,0.00,,,0.00,weatherlink.com 1.10,2013-06-29 22:54:00,
2013-06-29 19:09:00,79.2,74.0,29.53,WSW,247,9.0,24.0,84,0.00,,,0.00,weatherlink.com 1.10,2013-06-29 23:09:00,
2013-06-29 19:24:00,78.9,74.0,29.54,SSW,210,8.0,20.0,85,0.00,,,0.00,weatherlink.com 1.10,2013-06-29 23:24:00,
2013-06-29 19:39:00,78.8,74.0,29.54,SSW,205,10.0,14.0,85,0.00,,,0.00,weatherlink.com 1.10,2013-06-29 23:39:00,
2013-06-29 19:56:00,78.5,74.0,29.54,WSW,245,5.0,14.0,85,0.00,,,0.00,weatherlink.com 1.10,2013-06-29 23:56:00,
2013-06-29 20:11:00,78.3,74.0,29.55,WSW,251,5.0,14.0,85,0.00,,,0.00,weatherlink.com 1.10,2013-06-30 00:11:00,
2013-06-29 20:26:00,78.3,74.0,29.56,SW,218,7.0,15.0,85,0.00,,,0.00,weatherlink.com 1.10,2013-06-30 00:26:00,
2013-06-29 20:41:00,78.2,73.0,29.57,WSW,249,8.0,15.0,85,0.00,,,0.00,weatherlink.com 1.10,2013-06-30 00:41:00,
2013-06-29 20:56:00,78.1,73.0,29.57,SSW,210,6.0,15.0,85,0.00,,,0.00,weatherlink.com 1.10,2013-06-30 00:56:00,
2013-06-29 21:11:00,78.0,73.0,29.58,SSE,162,4.0,13.0,85,0.00,,,0.00,weatherlink.com 1.10,2013-06-30 01:11:00,
2013-06-29 21:26:00,77.7,73.0,29.58,West,260,4.0,13.0,86,0.00,,,0.00,weatherlink.com 1.10,2013-06-30 01:26:00,
2013-06-29 21:41:00,77.7,73.0,29.59,WSW,243,2.0,10.0,86,0.00,,,0.00,weatherlink.com 1.10,2013-06-30 01:41:00,
2013-06-29 21:56:00,77.5,73.0,29.59,SW,233,4.0,11.0,85,0.00,,,0.00,weatherlink.com 1.10,2013-06-30 01:56:00,
2013-06-29 22:12:00,77.1,73.0,29.58,SW,214,7.0,10.0,86,0.01,,,0.01,weatherlink.com 1.10,2013-06-30 02:12:00,
2013-06-29 22:27:00,76.9,73.0,29.59,WSW,255,4.0,7.0,87,0.01,,,0.01,weatherlink.com 1.10,2013-06-30 02:27:00,
2013-06-29 22:42:00,76.8,73.0,29.60,West,266,7.0,9.0,88,0.01,,,0.01,weatherlink.com 1.10,2013-06-30 02:42:00,
2013-06-29 22:57:00,77.4,74.0,29.60,WSW,250,6.0,10.0,88,0.01,,,0.01,weatherlink.com 1.10,2013-06-30 02:57:00,
2013-06-29 23:13:00,77.7,74.0,29.61,South,169,6.0,13.0,87,0.00,,,0.01,weatherlink.com 1.10,2013-06-30 03:13:00,
2013-06-29 23:28:00,77.8,74.0,29.61,WSW,249,4.0,12.0,88,0.00,,,0.01,weatherlink.com 1.10,2013-06-30 03:28:00,
2013-06-29 23:43:00,78.1,74.0,29.61,SW,221,8.0,19.0,88,0.00,,,0.01,weatherlink.com 1.10,2013-06-30 03:43:00,
2013-06-29 23:58:00,78.2,74.0,29.61,NNW,328,7.0,15.0,87,0.00,,,0.01,weatherlink.com 1.10,2013-06-30 03:58:00,